createdAt,value
2023-04-22T00:01:37.175Z,14.20
2023-04-22T00:04:06.003Z,14.20
2023-04-22T00:06:35.742Z,14.20
2023-04-22T00:09:04.462Z,14.20
2023-04-22T00:11:32.559Z,14.10
2023-04-22T00:14:00.654Z,14.10
2023-04-22T00:16:28.813Z,14.10
2023-04-22T00:18:57.245Z,14.00
2023-04-22T00:21:25.342Z,14.10
2023-04-22T00:23:55.486Z,14.00
2023-04-22T00:26:23.613Z,14.00
2023-04-22T00:28:51.692Z,14.00
2023-04-22T00:31:19.809Z,13.90
2023-04-22T00:33:47.885Z,13.90
2023-04-22T00:36:15.977Z,13.90
2023-04-22T00:38:49.504Z,13.90
2023-04-22T00:41:19.222Z,13.80
2023-04-22T00:43:47.612Z,13.80
2023-04-22T00:46:17.447Z,13.80
2023-04-22T00:48:47.350Z,13.70
2023-04-22T00:51:15.383Z,13.70
2023-04-22T00:53:43.580Z,13.70
2023-04-22T00:56:12.721Z,13.60
2023-04-22T00:58:42.794Z,13.60
2023-04-22T01:01:12.514Z,13.60
2023-04-22T01:03:42.233Z,13.60
2023-04-22T01:06:10.584Z,13.50
2023-04-22T01:08:38.844Z,13.50
2023-04-22T01:11:07.052Z,13.40
2023-04-22T01:13:35.915Z,13.40
2023-04-22T01:16:08.809Z,13.40
2023-04-22T01:18:37.493Z,13.40
2023-04-22T01:21:07.091Z,13.30
2023-04-22T01:23:36.654Z,13.30
2023-04-22T01:26:04.770Z,13.30
2023-04-22T01:28:32.944Z,13.20
2023-04-22T01:31:01.075Z,13.20
2023-04-22T01:33:29.486Z,13.10
2023-04-22T01:35:57.704Z,13.10
2023-04-22T01:38:25.822Z,13.10
2023-04-22T01:40:55.743Z,13.00
2023-04-22T01:43:24.446Z,13.00
2023-04-22T01:45:52.590Z,12.90
2023-04-22T01:48:21.067Z,12.90
2023-04-22T01:50:49.235Z,12.90
2023-04-22T01:53:17.518Z,12.90
2023-04-22T01:55:46.344Z,12.80
2023-04-22T01:58:16.619Z,12.80
2023-04-22T02:00:45.921Z,12.70
2023-04-22T02:03:14.160Z,12.70
2023-04-22T02:05:42.307Z,12.70
2023-04-22T02:08:10.852Z,12.70
2023-04-22T02:10:38.868Z,12.60
2023-04-22T02:13:08.385Z,12.70
2023-04-22T02:15:40.479Z,12.70
2023-04-22T02:18:10.119Z,12.60
2023-04-22T02:20:38.247Z,12.50
2023-04-22T02:23:07.578Z,12.50
2023-04-22T02:25:35.907Z,12.40
2023-04-22T02:28:03.982Z,12.40
2023-04-22T02:30:32.549Z,12.40
2023-04-22T02:33:02.515Z,12.30
2023-04-22T02:35:30.620Z,12.30
2023-04-22T02:37:58.745Z,12.20
2023-04-22T02:40:27.869Z,12.20
2023-04-22T02:42:56.032Z,12.10
2023-04-22T02:45:24.408Z,12.10
2023-04-22T02:47:52.535Z,12.10
2023-04-22T02:50:22.154Z,12.10
2023-04-22T02:52:50.263Z,12.00
2023-04-22T02:55:20.353Z,12.00
2023-04-22T02:57:48.423Z,11.90
2023-04-22T03:00:16.892Z,11.90
2023-04-22T03:02:45.111Z,11.90
2023-04-22T03:05:17.955Z,11.90
2023-04-22T03:07:49.329Z,11.80
2023-04-22T03:10:18.511Z,11.80
2023-04-22T03:12:46.681Z,11.70
2023-04-22T03:15:15.263Z,11.70
2023-04-22T03:17:43.460Z,11.70
2023-04-22T03:20:15.100Z,11.70
2023-04-22T03:22:43.858Z,11.70
2023-04-22T03:25:15.222Z,11.70
2023-04-22T03:27:48.806Z,11.60
2023-04-22T03:30:17.022Z,11.60
2023-04-22T03:32:45.404Z,11.60
2023-04-22T03:35:26.741Z,11.60
2023-04-22T03:37:58.730Z,11.60
2023-04-22T03:40:33.649Z,11.60
2023-04-22T03:43:05.290Z,11.60
2023-04-22T03:45:33.800Z,11.50
2023-04-22T03:48:14.998Z,11.50
2023-04-22T03:50:48.602Z,11.60
2023-04-22T03:53:18.043Z,11.60
2023-04-22T03:55:48.110Z,11.60
2023-04-22T03:58:18.494Z,11.60
2023-04-22T04:00:48.124Z,11.50
2023-04-22T04:03:19.039Z,11.50
2023-04-22T04:05:50.706Z,11.50
2023-04-22T04:08:18.850Z,11.50
2023-04-22T04:10:48.255Z,11.50
2023-04-22T04:13:17.260Z,11.50
2023-04-22T04:16:00.207Z,11.50
2023-04-22T04:18:30.628Z,11.50
2023-04-22T04:20:59.448Z,11.50
2023-04-22T04:23:30.580Z,11.50
2023-04-22T04:26:02.900Z,11.40
2023-04-22T04:28:32.193Z,11.50
2023-04-22T04:31:00.993Z,11.50
2023-04-22T04:33:29.198Z,11.40
2023-04-22T04:35:58.318Z,11.40
2023-04-22T04:38:31.344Z,11.40
2023-04-22T04:41:02.326Z,11.40
2023-04-22T04:43:30.779Z,11.40
2023-04-22T04:46:08.332Z,11.40
2023-04-22T04:48:38.546Z,11.30
2023-04-22T04:51:09.389Z,11.30
2023-04-22T04:53:42.896Z,11.30
2023-04-22T04:56:12.810Z,11.40
2023-04-22T04:58:40.958Z,11.30
2023-04-22T05:01:17.699Z,11.30
2023-04-22T05:03:47.467Z,11.40
2023-04-22T05:06:18.162Z,11.30
2023-04-22T05:08:58.653Z,11.40
2023-04-22T05:11:28.188Z,11.40
2023-04-22T05:13:58.211Z,11.40
2023-04-22T05:16:32.310Z,11.50
2023-04-22T05:19:01.097Z,11.50
2023-04-22T05:21:29.239Z,11.50
2023-04-22T05:23:57.937Z,11.50
2023-04-22T05:26:26.354Z,11.60
2023-04-22T05:28:55.915Z,11.60
2023-04-22T05:31:24.176Z,11.70
2023-04-22T05:33:52.891Z,11.70
2023-04-22T05:36:22.613Z,11.80
2023-04-22T05:38:50.911Z,11.80
2023-04-22T05:41:19.234Z,11.90
2023-04-22T05:43:47.412Z,11.90
2023-04-22T05:46:20.312Z,11.90
2023-04-22T05:48:49.285Z,12.00
2023-04-22T05:51:49.767Z,12.10
2023-04-22T05:54:21.211Z,12.10
2023-04-22T05:56:49.710Z,12.20
2023-04-22T05:59:19.545Z,12.30
2023-04-22T06:01:50.327Z,12.40
2023-04-22T06:04:21.580Z,12.50
2023-04-22T06:06:49.990Z,12.50
2023-04-22T06:09:18.071Z,12.60
2023-04-22T06:11:46.255Z,12.70
2023-04-22T06:14:14.369Z,12.70
2023-04-22T06:16:44.480Z,12.80
2023-04-22T06:19:14.068Z,12.80
2023-04-22T06:21:43.201Z,12.80
2023-04-22T06:24:11.358Z,12.90
2023-04-22T06:26:39.685Z,13.00
2023-04-22T06:29:07.882Z,13.10
2023-04-22T06:31:38.887Z,13.20
2023-04-22T06:34:07.137Z,13.20
2023-04-22T06:36:38.373Z,13.30
2023-04-22T06:39:07.654Z,13.40
2023-04-22T06:41:49.434Z,13.40
2023-04-22T06:44:43.613Z,13.40
2023-04-22T06:47:43.904Z,13.50
2023-04-22T06:50:17.685Z,13.50
2023-04-22T06:53:00.306Z,13.50
2023-04-22T06:55:28.547Z,13.60
2023-04-22T06:57:56.756Z,13.90
2023-04-22T07:00:25.579Z,14.20
2023-04-22T07:02:53.771Z,14.60
2023-04-22T07:05:22.704Z,15.00
2023-04-22T07:07:50.890Z,15.40
2023-04-22T07:10:23.773Z,15.80
2023-04-22T07:13:15.026Z,16.10
2023-04-22T07:15:43.224Z,16.40
2023-04-22T07:18:13.670Z,16.60
2023-04-22T07:20:43.903Z,16.60
2023-04-22T07:23:12.188Z,16.70
2023-04-22T07:25:41.605Z,16.70
2023-04-22T07:28:09.794Z,16.90
2023-04-22T07:30:37.887Z,17.10
2023-04-22T07:33:06.246Z,17.30
2023-04-22T07:35:34.341Z,17.30
2023-04-22T07:38:02.524Z,17.30
2023-04-22T07:40:30.644Z,17.40
2023-04-22T07:43:01.249Z,17.50
2023-04-22T07:45:29.353Z,17.50
2023-04-22T07:47:57.503Z,17.60
2023-04-22T07:50:25.772Z,17.70
2023-04-22T07:52:53.882Z,17.80
2023-04-22T07:55:21.958Z,17.90
2023-04-22T07:57:50.032Z,17.90
2023-04-22T08:00:19.900Z,17.90
2023-04-22T08:02:48.075Z,17.90
2023-04-22T08:05:16.287Z,18.00
2023-04-22T08:07:44.418Z,18.00
2023-04-22T08:10:12.517Z,18.10
2023-04-22T08:12:40.603Z,18.20
2023-04-22T08:15:09.368Z,18.30
2023-04-22T08:17:38.915Z,18.40
2023-04-22T08:20:08.398Z,18.50
2023-04-22T08:22:36.684Z,18.70
2023-04-22T08:25:06.756Z,18.80
2023-04-22T08:27:34.777Z,18.90
2023-04-22T08:30:03.367Z,19.00
2023-04-22T08:32:31.402Z,19.10
2023-04-22T08:35:04.876Z,19.30
2023-04-22T08:37:33.768Z,19.40
2023-04-22T08:40:02.345Z,19.50
2023-04-22T08:42:31.647Z,19.70
2023-04-22T08:44:59.983Z,19.90
2023-04-22T08:47:28.930Z,20.10
2023-04-22T08:49:57.320Z,20.20
2023-04-22T08:52:26.886Z,20.30
2023-04-22T08:54:54.978Z,20.50
2023-04-22T08:57:23.327Z,20.60
2023-04-22T08:59:52.365Z,20.70
2023-04-22T09:02:22.367Z,20.90
2023-04-22T09:04:51.726Z,21.00
2023-04-22T09:07:24.960Z,21.00
2023-04-22T09:09:54.429Z,21.10
2023-04-22T09:12:22.663Z,21.30
2023-04-22T09:14:50.902Z,21.30
2023-04-22T09:17:20.037Z,21.40
2023-04-22T09:19:58.934Z,21.50
2023-04-22T09:22:28.326Z,21.60
2023-04-22T09:24:58.122Z,21.80
2023-04-22T09:27:27.236Z,21.90
2023-04-22T09:29:55.388Z,22.00
2023-04-22T09:32:25.965Z,22.00
2023-04-22T09:34:55.367Z,22.10
2023-04-22T09:37:33.233Z,22.20
2023-04-22T09:40:16.992Z,22.30
2023-04-22T09:42:49.662Z,22.40
2023-04-22T09:45:27.336Z,22.40
2023-04-22T09:47:56.755Z,22.50
2023-04-22T09:50:27.751Z,22.60
2023-04-22T09:52:57.146Z,22.60
2023-04-22T09:55:27.833Z,22.70
2023-04-22T09:57:57.130Z,22.70
2023-04-22T10:00:26.958Z,22.80
2023-04-22T10:02:55.063Z,22.90
2023-04-22T10:05:23.352Z,22.90
2023-04-22T10:07:52.861Z,23.00
2023-04-22T10:10:21.215Z,23.00
2023-04-22T10:12:51.118Z,23.10
2023-04-22T10:15:19.226Z,23.10
2023-04-22T10:17:48.179Z,23.20
2023-04-22T10:20:18.848Z,23.20
2023-04-22T10:22:47.826Z,23.20
2023-04-22T10:25:23.734Z,23.20
2023-04-22T10:28:03.212Z,23.30
2023-04-22T10:30:33.463Z,23.40
2023-04-22T10:33:36.458Z,23.50
2023-04-22T10:36:09.271Z,23.50
2023-04-22T10:38:37.766Z,23.60
2023-04-22T10:41:06.154Z,23.70
2023-04-22T10:43:46.389Z,23.70
2023-04-22T10:46:52.229Z,23.70
2023-04-22T10:49:22.139Z,23.80
2023-04-22T10:51:51.459Z,23.80
2023-04-22T10:54:57.743Z,23.80
2023-04-22T10:57:36.159Z,23.90
2023-04-22T11:00:33.155Z,24.00
2023-04-22T11:03:13.058Z,24.00
2023-04-22T11:05:41.804Z,24.00
2023-04-22T11:08:14.585Z,24.10
2023-04-22T11:10:44.956Z,24.10
2023-04-22T11:13:15.588Z,24.20
2023-04-22T11:15:46.550Z,24.20
2023-04-22T11:18:20.896Z,24.20
2023-04-22T11:20:50.629Z,24.30
2023-04-22T11:23:23.548Z,24.30
2023-04-22T11:25:56.225Z,24.30
2023-04-22T11:28:24.666Z,24.30
2023-04-22T11:30:54.334Z,24.30
2023-04-22T11:33:22.495Z,24.30
2023-04-22T11:35:51.552Z,24.20
2023-04-22T11:38:19.683Z,24.20
2023-04-22T11:40:48.619Z,24.20
2023-04-22T11:43:18.590Z,24.20
2023-04-22T11:45:46.943Z,24.20
2023-04-22T11:48:16.802Z,24.20
2023-04-22T11:50:45.284Z,24.20
2023-04-22T11:53:18.380Z,24.20
2023-04-22T11:55:47.900Z,24.30
2023-04-22T11:58:17.529Z,24.30
2023-04-22T12:00:47.398Z,24.30
2023-04-22T12:03:18.491Z,24.30
2023-04-22T12:05:48.080Z,24.30
2023-04-22T12:08:18.611Z,24.30
2023-04-22T12:10:48.315Z,24.30
2023-04-22T12:13:21.058Z,24.30
2023-04-22T12:15:50.024Z,24.30
2023-04-22T12:18:29.710Z,24.30
2023-04-22T12:21:01.134Z,24.20
2023-04-22T12:23:29.446Z,24.20
2023-04-22T12:25:57.491Z,24.20
2023-04-22T12:28:25.548Z,24.20
2023-04-22T12:30:53.602Z,24.30
2023-04-22T12:33:23.069Z,24.30
2023-04-22T12:35:52.633Z,24.30
2023-04-22T12:38:21.056Z,24.30
2023-04-22T12:40:49.129Z,24.40
2023-04-22T12:43:17.355Z,24.40
2023-04-22T12:45:45.527Z,24.40
2023-04-22T12:48:13.697Z,24.30
2023-04-22T12:50:43.447Z,24.30
2023-04-22T12:53:11.804Z,24.20
2023-04-22T12:55:41.030Z,24.20
2023-04-22T12:58:09.260Z,24.20
2023-04-22T13:00:37.524Z,24.20
2023-04-22T13:03:05.857Z,24.10
2023-04-22T13:05:34.259Z,24.10
2023-04-22T13:08:07.577Z,24.10
2023-04-22T13:10:36.724Z,24.10
2023-04-22T13:13:17.507Z,24.20
2023-04-22T13:15:47.020Z,24.20
2023-04-22T13:18:15.952Z,24.30
2023-04-22T13:20:44.095Z,24.30
2023-04-22T13:23:14.785Z,24.40
2023-04-22T13:25:42.948Z,24.40
2023-04-22T13:28:11.851Z,24.40
2023-04-22T13:30:40.187Z,24.40
2023-04-22T13:33:08.502Z,24.50
2023-04-22T13:35:37.116Z,24.50
2023-04-22T13:38:06.447Z,24.60
2023-04-22T13:40:36.037Z,24.60
2023-04-22T13:43:04.413Z,24.60
2023-04-22T13:45:32.517Z,24.70
2023-04-22T13:48:00.722Z,24.70
2023-04-22T13:50:28.880Z,24.60
2023-04-22T13:52:56.961Z,24.50
2023-04-22T13:55:26.624Z,24.50
2023-04-22T13:57:56.135Z,24.40
2023-04-22T14:00:24.346Z,24.30
2023-04-22T14:02:52.572Z,24.30
2023-04-22T14:05:20.908Z,24.30
2023-04-22T14:07:49.004Z,24.40
2023-04-22T14:10:20.239Z,24.50
2023-04-22T14:12:48.624Z,24.50
2023-04-22T14:15:18.184Z,24.70
2023-04-22T14:17:49.248Z,24.80
2023-04-22T14:20:17.580Z,24.90
2023-04-22T14:22:46.254Z,25.00
2023-04-22T14:25:14.461Z,25.10
2023-04-22T14:27:42.513Z,25.10
2023-04-22T14:30:11.607Z,25.10
2023-04-22T14:32:41.082Z,25.00
2023-04-22T14:35:09.618Z,25.10
2023-04-22T14:37:39.675Z,25.10
2023-04-22T14:40:09.170Z,25.00
2023-04-22T14:42:37.238Z,25.00
2023-04-22T14:45:05.896Z,24.90
2023-04-22T14:47:34.302Z,24.90
2023-04-22T14:50:03.955Z,24.80
2023-04-22T14:52:33.463Z,24.80
2023-04-22T14:55:11.817Z,24.70
2023-04-22T14:57:43.868Z,24.70
2023-04-22T15:00:12.888Z,24.80
2023-04-22T15:02:41.274Z,24.90
2023-04-22T15:05:11.054Z,25.00
2023-04-22T15:07:39.074Z,25.10
2023-04-22T15:10:08.084Z,25.10
2023-04-22T15:12:36.095Z,25.10
2023-04-22T15:15:04.274Z,25.10
2023-04-22T15:17:34.450Z,25.10
2023-04-22T15:20:05.254Z,25.00
2023-04-22T15:22:36.019Z,24.90
2023-04-22T15:25:04.628Z,24.90
2023-04-22T15:27:33.055Z,24.80
2023-04-22T15:30:01.257Z,24.70
2023-04-22T15:32:29.269Z,24.60
2023-04-22T15:34:57.396Z,24.50
2023-04-22T15:37:25.864Z,24.50
2023-04-22T15:39:55.278Z,24.40
2023-04-22T15:42:23.293Z,24.30
2023-04-22T15:44:51.354Z,24.30
2023-04-22T15:47:19.501Z,24.30
2023-04-22T15:49:49.409Z,24.30
2023-04-22T15:52:19.525Z,24.30
2023-04-22T15:54:48.439Z,24.40
2023-04-22T15:57:17.972Z,24.40
2023-04-22T15:59:46.945Z,24.40
2023-04-22T16:02:17.864Z,24.40
2023-04-22T16:04:46.501Z,24.50
2023-04-22T16:07:14.616Z,24.50
2023-04-22T16:09:43.316Z,24.50
2023-04-22T16:12:11.413Z,24.40
2023-04-22T16:14:41.844Z,24.40
2023-04-22T16:17:09.963Z,24.30
2023-04-22T16:19:38.235Z,24.30
2023-04-22T16:22:06.946Z,24.20
2023-04-22T16:24:35.291Z,24.10
2023-04-22T16:27:03.643Z,24.10
2023-04-22T16:29:31.687Z,24.00
2023-04-22T16:32:01.364Z,23.90
2023-04-22T16:34:29.511Z,23.90
2023-04-22T16:36:57.535Z,23.80
2023-04-22T16:39:25.629Z,23.70
2023-04-22T16:41:54.877Z,23.70
2023-04-22T16:44:22.920Z,23.60
2023-04-22T16:46:50.963Z,23.60
2023-04-22T16:49:20.969Z,23.60
2023-04-22T16:51:49.579Z,23.60
2023-04-22T16:54:17.608Z,23.50
2023-04-22T16:56:46.863Z,23.50
2023-04-22T16:59:15.167Z,23.50
2023-04-22T17:01:43.311Z,23.40
2023-04-22T17:04:12.255Z,23.40
2023-04-22T17:06:41.834Z,23.30
2023-04-22T17:09:10.205Z,23.30
2023-04-22T17:11:38.297Z,23.30
2023-04-22T17:14:06.336Z,23.20
2023-04-22T17:16:34.447Z,23.10
2023-04-22T17:19:02.529Z,23.10
2023-04-22T17:21:31.168Z,23.00
2023-04-22T17:24:02.132Z,23.00
2023-04-22T17:26:30.203Z,23.00
2023-04-22T17:28:58.291Z,22.90
2023-04-22T17:31:26.423Z,22.80
2023-04-22T17:33:54.790Z,22.80
2023-04-22T17:36:22.824Z,22.70
2023-04-22T17:38:50.994Z,22.70
2023-04-22T17:41:21.054Z,22.70
2023-04-22T17:43:49.196Z,22.60
2023-04-22T17:46:17.736Z,22.50
2023-04-22T17:48:46.819Z,22.40
2023-04-22T17:51:15.313Z,22.20
2023-04-22T17:53:43.415Z,22.00
2023-04-22T17:56:11.524Z,21.70
2023-04-22T17:58:40.970Z,21.40
2023-04-22T18:01:09.620Z,21.20
2023-04-22T18:03:38.119Z,20.90
2023-04-22T18:06:06.506Z,20.70
2023-04-22T18:08:34.598Z,20.60
2023-04-22T18:11:04.829Z,20.40
2023-04-22T18:13:33.550Z,20.20
2023-04-22T18:16:02.958Z,20.10
2023-04-22T18:18:31.152Z,20.00
2023-04-22T18:21:00.719Z,19.90
2023-04-22T18:23:29.876Z,19.80
2023-04-22T18:25:57.895Z,19.60
2023-04-22T18:28:25.977Z,19.60
2023-04-22T18:30:54.204Z,19.50
2023-04-22T18:33:23.621Z,19.50
2023-04-22T18:35:51.746Z,19.40
2023-04-22T18:38:20.032Z,19.30
2023-04-22T18:40:48.105Z,19.20
2023-04-22T18:43:16.221Z,19.10
2023-04-22T18:45:44.574Z,19.00
2023-04-22T18:48:12.838Z,19.00
2023-04-22T18:50:42.306Z,18.90
2023-04-22T18:53:10.375Z,18.80
2023-04-22T18:55:38.492Z,18.70
2023-04-22T18:58:06.660Z,18.70
2023-04-22T19:00:34.876Z,18.50
2023-04-22T19:03:03.262Z,18.50
2023-04-22T19:05:31.587Z,18.40
2023-04-22T19:08:01.683Z,18.30
2023-04-22T19:10:29.774Z,18.30
2023-04-22T19:12:57.901Z,18.20
2023-04-22T19:15:26.038Z,18.20
2023-04-22T19:17:54.244Z,18.10
2023-04-22T19:20:22.413Z,18.10
2023-04-22T19:22:50.837Z,18.00
2023-04-22T19:25:20.520Z,17.90
2023-04-22T19:27:48.626Z,17.90
2023-04-22T19:30:16.865Z,17.80
2023-04-22T19:32:45.124Z,17.80
2023-04-22T19:35:16.235Z,17.80
2023-04-22T19:37:45.534Z,17.70
2023-04-22T19:40:14.408Z,17.70
2023-04-22T19:42:44.583Z,17.60
2023-04-22T19:45:13.016Z,17.60
2023-04-22T19:47:41.566Z,17.50
2023-04-22T19:50:11.210Z,17.50
2023-04-22T19:52:42.786Z,17.50
2023-04-22T19:55:12.375Z,17.50
2023-04-22T19:57:42.274Z,17.50
2023-04-22T20:00:13.104Z,17.40
2023-04-22T20:02:43.155Z,17.40
2023-04-22T20:05:12.301Z,17.40
2023-04-22T20:07:42.225Z,17.30
2023-04-22T20:10:11.369Z,17.30
2023-04-22T20:12:39.812Z,17.30
2023-04-22T20:15:10.525Z,17.20
2023-04-22T20:17:40.571Z,17.20
2023-04-22T20:20:13.438Z,17.10
2023-04-22T20:22:42.572Z,17.10
2023-04-22T20:25:13.870Z,17.10
2023-04-22T20:27:42.493Z,17.10
2023-04-22T20:30:12.987Z,17.10
2023-04-22T20:32:42.784Z,17.00
2023-04-22T20:35:15.001Z,17.00
2023-04-22T20:37:44.101Z,17.00
2023-04-22T20:40:15.060Z,17.00
2023-04-22T20:42:43.348Z,17.00
2023-04-22T20:45:15.339Z,16.90
2023-04-22T20:47:44.811Z,16.90
2023-04-22T20:50:13.958Z,17.00
2023-04-22T20:52:42.008Z,17.00
2023-04-22T20:55:11.099Z,16.90
2023-04-22T20:57:39.262Z,16.90
2023-04-22T21:00:09.146Z,16.90
2023-04-22T21:02:38.912Z,16.90
2023-04-22T21:05:11.188Z,16.80
2023-04-22T21:07:40.715Z,16.80
2023-04-22T21:10:10.559Z,16.80
2023-04-22T21:12:40.450Z,16.70
2023-04-22T21:15:09.843Z,16.70
2023-04-22T21:17:41.702Z,16.70
2023-04-22T21:20:12.622Z,16.70
2023-04-22T21:22:44.145Z,16.70
2023-04-22T21:25:15.740Z,16.70
2023-04-22T21:27:44.272Z,16.60
2023-04-22T21:30:13.682Z,16.60
2023-04-22T21:32:42.246Z,16.60
2023-04-22T21:35:12.225Z,16.60
2023-04-22T21:37:40.385Z,16.50
2023-04-22T21:40:12.886Z,16.50
2023-04-22T21:42:41.669Z,16.50
2023-04-22T21:45:10.365Z,16.50
2023-04-22T21:47:38.420Z,16.40
2023-04-22T21:50:07.721Z,16.40
2023-04-22T21:52:37.446Z,16.40
2023-04-22T21:55:06.200Z,16.30
2023-04-22T21:57:34.243Z,16.30
2023-04-22T22:00:02.434Z,16.20
2023-04-22T22:02:33.239Z,16.20
2023-04-22T22:05:01.550Z,16.20
2023-04-22T22:07:30.453Z,16.10
2023-04-22T22:09:59.936Z,16.10
2023-04-22T22:12:28.002Z,16.10
2023-04-22T22:14:56.187Z,16.10
2023-04-22T22:17:25.471Z,16.10
2023-04-22T22:19:53.626Z,16.00
2023-04-22T22:22:21.728Z,16.00
2023-04-22T22:24:52.541Z,16.00
2023-04-22T22:27:22.040Z,16.00
2023-04-22T22:29:50.241Z,15.90
2023-04-22T22:32:18.554Z,15.90
2023-04-22T22:34:46.592Z,15.90
2023-04-22T22:37:14.887Z,15.80
2023-04-22T22:39:43.113Z,15.80
2023-04-22T22:42:11.154Z,15.80
2023-04-22T22:44:40.888Z,15.80
2023-04-22T22:47:09.158Z,15.80
2023-04-22T22:49:37.452Z,15.80
2023-04-22T22:52:06.448Z,15.80
2023-04-22T22:54:37.332Z,15.80
2023-04-22T22:57:05.957Z,15.70
2023-04-22T22:59:34.005Z,15.70
2023-04-22T23:02:04.119Z,15.70
2023-04-22T23:04:32.653Z,15.70
2023-04-22T23:07:01.339Z,15.70
2023-04-22T23:09:29.425Z,15.60
2023-04-22T23:11:57.443Z,15.60
2023-04-22T23:14:28.134Z,15.50
2023-04-22T23:16:56.303Z,15.50
2023-04-22T23:19:26.712Z,15.50
2023-04-22T23:21:56.307Z,15.40
2023-04-22T23:24:24.859Z,15.30
2023-04-22T23:26:53.463Z,15.30
2023-04-22T23:29:22.271Z,15.20
2023-04-22T23:31:52.857Z,15.10
2023-04-22T23:34:23.850Z,15.10
2023-04-22T23:36:54.015Z,15.00
2023-04-22T23:39:22.102Z,15.00
2023-04-22T23:41:50.220Z,14.90
2023-04-22T23:44:18.421Z,14.80
2023-04-22T23:46:47.958Z,14.80
2023-04-22T23:49:16.167Z,14.70
2023-04-22T23:51:44.306Z,14.50
2023-04-22T23:54:15.884Z,14.40
2023-04-22T23:56:44.571Z,14.40
2023-04-22T23:59:13.128Z,14.30
